Time;durP1;ratioP1;P1;durP2;ratioP2;P2;SDS_P1;SDS_P2;PMS_P1;PMS_P2;Temp;Humidity;BMP_temperature;BMP_pressure;BME280_temperature;BME280_humidity;BME280_pressure;Samples;Min_cycle;Max_cycle;Signal;HPM_P1;HPM_P2
2021/12/01 00:02:03;;;;;;;25.55;16.33;;;9.80;99.90;;;;;;5048769;28;20033;-85
2021/12/01 00:04:29;;;;;;;23.42;14.57;;;9.80;99.90;;;;;;5049351;28;20098;-85
2021/12/01 00:06:54;;;;;;;22.60;14.85;;;9.80;99.90;;;;;;5049663;28;20048;-85
2021/12/01 00:09:20;;;;;;;23.80;15.88;;;9.80;99.90;;;;;;5049067;28;20122;-85
2021/12/01 00:11:45;;;;;;;24.67;15.00;;;9.90;99.90;;;;;;5032782;28;20115;-85
2021/12/01 00:14:11;;;;;;;22.42;15.60;;;9.90;99.90;;;;;;5048891;28;20037;-85
2021/12/01 00:16:37;;;;;;;25.52;16.02;;;9.90;99.90;;;;;;5048951;28;20044;-85
2021/12/01 00:19:02;;;;;;;23.25;14.70;;;9.90;99.90;;;;;;5049382;28;20041;-85
2021/12/01 00:21:28;;;;;;;23.55;16.73;;;9.90;99.90;;;;;;5033228;28;20140;-85
2021/12/01 00:23:53;;;;;;;24.08;16.73;;;9.90;99.90;;;;;;5048005;28;20517;-85
2021/12/01 00:26:19;;;;;;;26.02;17.42;;;9.90;99.90;;;;;;5048950;28;20038;-85
2021/12/01 00:28:45;;;;;;;26.88;17.98;;;9.90;99.90;;;;;;5049167;28;20045;-85
2021/12/01 00:31:10;;;;;;;24.67;18.40;;;10.00;99.90;;;;;;5049125;28;20036;-85
2021/12/01 00:33:36;;;;;;;27.75;19.27;;;9.90;99.90;;;;;;5048959;28;20128;-85
2021/12/01 00:36:02;;;;;;;30.25;19.70;;;10.00;99.90;;;;;;5032222;28;20124;-86
2021/12/01 00:38:28;;;;;;;28.27;20.50;;;10.00;99.90;;;;;;5049180;28;20080;-85
2021/12/01 00:40:55;;;;;;;27.92;20.27;;;10.00;99.90;;;;;;5049385;28;20516;-85
2021/12/01 00:43:23;;;;;;;30.92;21.65;;;10.00;99.90;;;;;;5032700;28;20660;-85
2021/12/01 00:45:56;;;;;;;29.42;20.60;;;10.00;99.90;;;;;;5049318;28;20049;-85
2021/12/01 00:48:21;;;;;;;27.38;18.88;;;10.00;99.90;;;;;;5049325;28;20119;-85
2021/12/01 00:50:48;;;;;;;27.33;18.95;;;10.00;99.90;;;;;;5032546;28;20446;-85
2021/12/01 00:53:14;;;;;;;29.67;19.30;;;10.10;99.90;;;;;;5049272;28;20040;-85
2021/12/01 00:55:42;;;;;;;27.63;20.45;;;10.10;99.90;;;;;;5048994;28;20037;-85
2021/12/01 00:58:08;;;;;;;29.75;20.15;;;10.10;99.90;;;;;;5049110;28;20083;-85
2021/12/01 01:00:34;;;;;;;27.27;19.75;;;10.10;99.90;;;;;;5049030;28;20086;-85
2021/12/01 01:03:00;;;;;;;29.10;19.50;;;10.10;99.90;;;;;;5049329;28;20400;-85
2021/12/01 01:05:26;;;;;;;29.50;21.58;;;10.10;99.90;;;;;;5048953;28;20034;-85
2021/12/01 01:07:53;;;;;;;30.02;20.80;;;10.10;99.90;;;;;;5048455;28;20041;-85
2021/12/01 01:18:28;;;;;;;27.33;17.85;;;10.10;99.90;;;;;;5052585;28;20049;-85
2021/12/01 01:20:53;;;;;;;27.80;20.38;;;10.10;99.90;;;;;;5052842;28;20558;-85
2021/12/01 01:23:19;;;;;;;26.45;18.33;;;10.10;99.90;;;;;;5051459;28;20112;-84
2021/12/01 01:25:45;;;;;;;27.58;17.35;;;10.10;99.90;;;;;;5051894;28;20036;-85
2021/12/01 01:28:11;;;;;;;27.55;19.98;;;10.10;99.90;;;;;;5036013;28;20041;-85
2021/12/01 01:30:36;;;;;;;27.30;17.73;;;10.10;99.90;;;;;;5035453;28;20044;-85
2021/12/01 01:33:02;;;;;;;22.08;16.08;;;10.10;99.90;;;;;;5038881;28;20040;-85
2021/12/01 01:35:27;;;;;;;21.27;16.15;;;10.10;99.90;;;;;;5039117;28;20553;-85
2021/12/01 01:37:53;;;;;;;22.90;14.88;;;10.10;99.90;;;;;;5073668;28;20533;-85
2021/12/01 01:40:19;;;;;;;20.10;13.15;;;10.10;99.90;;;;;;5055732;28;20032;-85
2021/12/01 01:42:45;;;;;;;22.15;14.82;;;10.10;99.90;;;;;;5055360;28;20510;-85
2021/12/01 01:45:11;;;;;;;21.10;13.20;;;10.10;99.90;;;;;;5038290;28;20421;-85
2021/12/01 01:47:45;;;;;;;19.77;14.20;;;10.10;99.90;;;;;;5055284;28;20055;-85
2021/12/01 01:50:26;;;;;;;19.45;12.65;;;10.20;99.90;;;;;;5055713;28;20145;-85
2021/12/01 01:52:51;;;;;;;22.08;13.55;;;10.20;99.90;;;;;;5055131;28;20161;-85
2021/12/01 01:55:17;;;;;;;20.58;13.80;;;10.20;99.90;;;;;;5038277;28;20130;-85
2021/12/01 01:57:44;;;;;;;19.73;12.20;;;10.20;99.90;;;;;;5038234;28;20040;-85
2021/12/01 02:00:10;;;;;;;22.48;13.95;;;10.20;99.90;;;;;;5055226;28;20050;-85
2021/12/01 02:02:36;;;;;;;19.58;13.07;;;10.20;99.90;;;;;;5038452;28;20044;-85
2021/12/01 02:05:02;;;;;;;17.77;12.80;;;10.20;99.90;;;;;;5054676;28;20409;-85
2021/12/01 02:07:27;;;;;;;18.05;12.02;;;10.20;99.90;;;;;;5055108;28;20153;-85
2021/12/01 02:09:53;;;;;;;20.63;13.07;;;10.20;99.90;;;;;;5055359;28;20040;-85
2021/12/01 02:12:18;;;;;;;21.50;13.80;;;10.20;99.90;;;;;;5054787;28;20036;-85
2021/12/01 02:14:44;;;;;;;19.10;13.00;;;10.20;99.90;;;;;;5054364;28;20044;-85
2021/12/01 02:17:10;;;;;;;21.88;12.68;;;10.20;99.90;;;;;;5073314;28;20428;-85
2021/12/01 02:19:39;;;;;;;20.50;12.75;;;10.20;99.90;;;;;;5038838;28;20500;-85
2021/12/01 02:22:05;;;;;;;18.92;11.98;;;10.20;99.90;;;;;;5054958;28;20424;-85
2021/12/01 02:24:30;;;;;;;18.33;11.98;;;10.20;99.90;;;;;;5054295;28;20485;-85
2021/12/01 02:26:56;;;;;;;19.27;11.00;;;10.20;99.90;;;;;;5054934;28;20086;-85
2021/12/01 02:29:25;;;;;;;16.67;10.27;;;10.20;99.90;;;;;;5038237;28;20045;-85
2021/12/01 02:31:52;;;;;;;17.30;10.70;;;10.20;99.90;;;;;;5054803;28;20036;-85
2021/12/01 02:34:22;;;;;;;15.23;9.38;;;10.20;99.90;;;;;;5053893;28;20041;-84
2021/12/01 02:36:54;;;;;;;16.38;10.05;;;10.20;99.90;;;;;;5054243;28;20051;-85
2021/12/01 02:39:20;;;;;;;16.65;8.95;;;10.30;99.90;;;;;;5054577;28;20097;-85
2021/12/01 02:41:51;;;;;;;16.38;10.45;;;10.30;99.90;;;;;;5054614;28;20090;-85
2021/12/01 02:44:17;;;;;;;15.50;9.05;;;10.30;99.90;;;;;;5054754;28;20048;-85
2021/12/01 02:46:44;;;;;;;13.00;8.20;;;10.30;99.90;;;;;;5053737;28;20178;-85
2021/12/01 02:49:10;;;;;;;14.45;8.70;;;10.30;99.90;;;;;;5054658;28;20040;-84
2021/12/01 02:51:37;;;;;;;12.57;8.25;;;10.30;99.90;;;;;;5054443;28;20078;-85
2021/12/01 02:54:04;;;;;;;10.63;6.57;;;10.30;99.90;;;;;;5053756;28;20032;-85
2021/12/01 02:56:31;;;;;;;11.13;6.35;;;10.30;99.90;;;;;;5054383;28;20036;-85
2021/12/01 02:58:59;;;;;;;9.73;5.22;;;10.30;99.90;;;;;;5054022;28;20036;-84
2021/12/01 03:01:26;;;;;;;10.43;5.90;;;10.30;99.90;;;;;;5054019;28;20595;-85
2021/12/01 03:03:52;;;;;;;10.20;4.97;;;10.40;99.90;;;;;;5053188;28;20040;-85
2021/12/01 03:06:20;;;;;;;9.25;4.78;;;10.40;99.90;;;;;;5037238;28;20037;-85
2021/12/01 03:08:46;;;;;;;9.70;4.72;;;10.40;99.90;;;;;;5053776;28;20044;-85
2021/12/01 03:11:13;;;;;;;8.32;4.30;;;10.40;99.90;;;;;;5054031;28;20036;-85
2021/12/01 03:13:39;;;;;;;8.80;4.45;;;10.40;99.90;;;;;;5053235;28;20036;-85
2021/12/01 03:16:05;;;;;;;8.00;3.88;;;10.40;99.90;;;;;;5053771;28;20497;-84
2021/12/01 03:18:31;;;;;;;7.90;3.88;;;10.40;99.90;;;;;;5053834;28;20040;-85
2021/12/01 03:20:58;;;;;;;9.05;3.83;;;10.40;99.90;;;;;;5053724;28;20052;-84
2021/12/01 03:23:24;;;;;;;8.75;4.25;;;10.50;99.90;;;;;;5052538;28;20071;-85
2021/12/01 03:25:51;;;;;;;8.88;4.07;;;10.50;99.90;;;;;;5036588;28;20181;-84
2021/12/01 03:28:17;;;;;;;8.75;4.13;;;10.50;99.90;;;;;;5053495;28;20401;-84
2021/12/01 03:30:44;;;;;;;9.43;3.72;;;10.40;99.90;;;;;;5052943;28;20033;-84
2021/12/01 03:33:19;;;;;;;8.20;4.05;;;10.40;99.90;;;;;;5053686;28;20043;-85
2021/12/01 03:35:48;;;;;;;8.55;3.97;;;10.40;99.90;;;;;;5054034;28;20043;-84
2021/12/01 03:38:14;;;;;;;9.80;4.10;;;10.40;99.90;;;;;;5053710;28;20080;-84
2021/12/01 03:40:40;;;;;;;8.30;3.75;;;10.40;99.90;;;;;;5063521;28;20044;-84
2021/12/01 03:43:06;;;;;;;8.40;3.97;;;10.40;99.90;;;;;;5073774;28;20126;-84
2021/12/01 03:45:32;;;;;;;7.55;3.75;;;10.40;99.90;;;;;;5072799;28;20131;-84
2021/12/01 03:47:58;;;;;;;7.90;3.90;;;10.40;99.90;;;;;;5071230;28;20074;-84
2021/12/01 03:50:25;;;;;;;7.57;3.70;;;10.40;99.90;;;;;;5045274;28;20464;-83
2021/12/01 03:52:51;;;;;;;7.07;3.38;;;10.40;99.90;;;;;;5052756;28;20119;-84
2021/12/01 03:55:16;;;;;;;9.55;4.55;;;10.50;99.90;;;;;;5052686;28;20127;-84
2021/12/01 03:57:42;;;;;;;8.57;4.35;;;10.50;99.90;;;;;;5052424;28;20029;-84
2021/12/01 04:00:11;;;;;;;7.32;4.07;;;10.50;99.90;;;;;;5054346;28;20481;-84
2021/12/01 04:02:37;;;;;;;9.02;3.75;;;10.40;99.90;;;;;;5047130;28;20068;-84
2021/12/01 04:05:04;;;;;;;7.80;3.90;;;10.40;99.90;;;;;;5068085;28;20516;-84
2021/12/01 04:07:30;;;;;;;7.00;3.22;;;10.40;99.90;;;;;;5053016;28;20166;-84
2021/12/01 04:09:56;;;;;;;7.28;3.33;;;10.40;99.90;;;;;;5052843;28;20123;-84
2021/12/01 04:12:21;;;;;;;7.47;3.17;;;10.40;99.90;;;;;;5053169;28;20427;-84
2021/12/01 04:14:47;;;;;;;7.95;3.85;;;10.40;99.90;;;;;;5052031;28;20568;-85
2021/12/01 04:17:13;;;;;;;7.15;3.50;;;10.40;99.90;;;;;;5052759;28;20045;-84
2021/12/01 04:19:38;;;;;;;8.10;3.92;;;10.40;99.90;;;;;;5035972;28;20406;-84
2021/12/01 04:22:04;;;;;;;7.07;3.05;;;10.30;99.90;;;;;;5052704;28;20039;-84
2021/12/01 04:24:30;;;;;;;5.85;2.85;;;10.30;99.90;;;;;;5051451;28;20075;-84
2021/12/01 04:26:56;;;;;;;6.60;3.22;;;10.30;99.90;;;;;;5051979;28;20665;-85
2021/12/01 04:29:22;;;;;;;6.05;2.40;;;10.30;99.90;;;;;;5035953;28;20048;-84
2021/12/01 04:31:48;;;;;;;5.78;2.60;;;10.20;99.90;;;;;;5049369;28;20051;-85
2021/12/01 04:34:14;;;;;;;6.00;2.63;;;10.20;99.90;;;;;;5049412;28;20036;-84
2021/12/01 04:36:42;;;;;;;7.82;2.70;;;10.20;99.90;;;;;;5049005;28;20037;-84
2021/12/01 04:39:11;;;;;;;6.10;2.35;;;10.20;99.90;;;;;;5049010;28;20498;-85
2021/12/01 04:41:41;;;;;;;5.40;2.10;;;10.20;99.90;;;;;;5048831;28;20069;-84
2021/12/01 04:44:14;;;;;;;7.47;2.35;;;10.20;99.90;;;;;;5048805;28;20044;-84
2021/12/01 04:46:44;;;;;;;5.68;2.13;;;10.10;99.90;;;;;;5032413;28;20049;-84
2021/12/01 04:49:13;;;;;;;4.90;2.15;;;10.10;99.90;;;;;;5051814;28;20049;-85
2021/12/01 04:51:45;;;;;;;5.35;2.15;;;10.10;99.90;;;;;;5052444;28;20039;-85
2021/12/01 04:54:11;;;;;;;4.15;1.65;;;10.10;99.90;;;;;;5052740;28;20037;-85
2021/12/01 04:56:37;;;;;;;6.60;2.30;;;10.10;99.90;;;;;;5053130;28;20049;-84
2021/12/01 04:59:06;;;;;;;5.80;2.15;;;10.10;99.90;;;;;;5053403;28;20445;-84
2021/12/01 05:01:35;;;;;;;5.43;2.03;;;10.10;99.90;;;;;;5053123;28;20490;-84
2021/12/01 05:04:01;;;;;;;6.43;1.90;;;10.00;99.90;;;;;;5052945;28;20493;-84
2021/12/01 05:06:28;;;;;;;6.00;2.17;;;10.00;99.90;;;;;;5036335;28;20044;-84
2021/12/01 05:08:53;;;;;;;5.30;2.22;;;9.90;99.90;;;;;;5052753;28;20059;-84
2021/12/01 05:11:19;;;;;;;5.68;2.08;;;9.90;99.90;;;;;;5052997;28;20041;-84
2021/12/01 05:13:45;;;;;;;5.10;2.25;;;9.90;99.90;;;;;;5052222;28;20064;-84
2021/12/01 05:16:10;;;;;;;5.13;2.03;;;9.80;99.90;;;;;;5052305;28;20124;-85
2021/12/01 05:18:36;;;;;;;5.40;2.15;;;9.80;99.90;;;;;;5052869;28;20032;-85
2021/12/01 05:21:03;;;;;;;5.13;1.92;;;9.80;99.90;;;;;;5052582;28;20033;-84
2021/12/01 05:23:29;;;;;;;5.35;1.90;;;9.70;99.90;;;;;;5034986;28;20406;-85
2021/12/01 05:25:54;;;;;;;4.95;2.25;;;9.70;99.90;;;;;;5052696;28;20486;-84
2021/12/01 05:28:20;;;;;;;6.57;2.47;;;9.70;99.90;;;;;;5052723;28;20493;-84
2021/12/01 05:30:45;;;;;;;6.32;2.20;;;9.70;99.90;;;;;;5053511;28;20068;-85
2021/12/01 05:33:14;;;;;;;5.60;2.38;;;9.60;99.90;;;;;;5055766;28;20094;-85
2021/12/01 05:35:41;;;;;;;5.38;2.08;;;9.60;99.90;;;;;;5055273;28;20041;-84
2021/12/01 05:38:06;;;;;;;6.63;2.47;;;9.60;99.90;;;;;;5055919;28;20044;-84
2021/12/01 05:40:32;;;;;;;4.40;1.77;;;9.60;99.90;;;;;;5055072;28;20134;-85
2021/12/01 05:42:58;;;;;;;5.38;2.08;;;9.60;99.90;;;;;;5055622;28;20071;-84
2021/12/01 05:45:24;;;;;;;4.82;1.92;;;9.60;99.90;;;;;;5054952;28;20080;-84
2021/12/01 05:47:50;;;;;;;4.78;1.77;;;9.60;99.90;;;;;;5038938;28;20107;-84
2021/12/01 05:50:16;;;;;;;4.45;1.90;;;9.60;99.90;;;;;;5055397;28;20047;-84
2021/12/01 05:52:42;;;;;;;4.90;2.20;;;9.60;99.90;;;;;;5055336;28;20032;-84
2021/12/01 05:55:09;;;;;;;4.85;1.85;;;9.50;99.90;;;;;;5054909;28;20037;-85
2021/12/01 05:57:34;;;;;;;4.50;1.50;;;9.50;99.90;;;;;;5054957;28;20033;-84
2021/12/01 06:00:00;;;;;;;3.70;1.80;;;9.40;99.90;;;;;;5054407;28;20037;-84
2021/12/01 06:02:29;;;;;;;4.13;1.58;;;9.40;99.90;;;;;;5055163;28;20044;-84
2021/12/01 06:04:54;;;;;;;5.50;1.85;;;9.40;99.90;;;;;;5037919;28;20037;-84
2021/12/01 06:07:20;;;;;;;4.70;1.80;;;9.40;99.90;;;;;;5055375;28;20177;-84
2021/12/01 06:09:46;;;;;;;4.57;1.83;;;9.40;99.90;;;;;;5055359;28;20040;-84
2021/12/01 06:12:12;;;;;;;5.53;1.92;;;9.40;99.90;;;;;;5055093;28;20040;-84
2021/12/01 06:14:41;;;;;;;4.82;2.22;;;9.40;99.90;;;;;;5037773;28;20045;-84
2021/12/01 06:17:09;;;;;;;4.28;1.60;;;9.30;99.90;;;;;;5054571;28;20128;-84
2021/12/01 06:19:34;;;;;;;4.95;2.05;;;9.30;99.90;;;;;;5039231;28;20127;-84
2021/12/01 06:22:00;;;;;;;4.35;1.75;;;9.30;99.90;;;;;;5038489;28;20125;-84
2021/12/01 06:24:26;;;;;;;5.40;2.22;;;9.30;99.90;;;;;;5053283;28;20124;-84
2021/12/01 06:26:52;;;;;;;5.20;1.92;;;9.30;99.90;;;;;;5052820;28;20199;-84
2021/12/01 06:29:17;;;;;;;5.75;2.03;;;9.30;99.90;;;;;;5038496;28;20052;-85
2021/12/01 06:31:43;;;;;;;5.60;2.35;;;9.30;99.90;;;;;;5054889;28;20422;-84
2021/12/01 06:34:09;;;;;;;5.43;2.00;;;9.30;99.90;;;;;;5054531;28;20519;-84
2021/12/01 06:36:34;;;;;;;6.10;2.25;;;9.30;99.90;;;;;;5054719;28;20041;-83
2021/12/01 06:39:00;;;;;;;5.80;2.60;;;9.30;99.90;;;;;;5054268;28;20033;-84
2021/12/01 06:41:26;;;;;;;5.72;2.28;;;9.20;99.90;;;;;;5054488;28;20037;-84
2021/12/01 06:43:51;;;;;;;4.60;1.92;;;9.30;99.90;;;;;;5054184;28;20541;-84
2021/12/01 06:46:17;;;;;;;4.28;2.00;;;9.30;99.90;;;;;;5054150;28;20044;-84
2021/12/01 06:48:43;;;;;;;5.53;2.20;;;9.20;99.90;;;;;;5054227;28;20047;-84
2021/12/01 06:51:09;;;;;;;5.88;2.30;;;9.20;99.90;;;;;;5054487;28;20044;-85
2021/12/01 06:53:34;;;;;;;6.93;2.53;;;9.20;99.90;;;;;;5053869;28;20044;-84
2021/12/01 06:56:00;;;;;;;4.30;2.05;;;9.20;99.90;;;;;;5054290;28;20036;-85
2021/12/01 06:58:25;;;;;;;6.40;2.75;;;9.20;99.90;;;;;;5048123;28;20037;-85
2021/12/01 07:00:51;;;;;;;6.88;2.22;;;9.20;99.90;;;;;;5054358;28;20485;-85
2021/12/01 07:03:17;;;;;;;5.97;2.33;;;9.20;99.90;;;;;;5053787;28;20433;-85
2021/12/01 07:05:42;;;;;;;6.32;2.13;;;9.20;99.90;;;;;;5037311;28;20041;-85
2021/12/01 07:08:08;;;;;;;6.10;2.00;;;9.20;99.90;;;;;;5053880;28;20044;-85
2021/12/01 07:10:34;;;;;;;4.63;1.83;;;9.20;99.90;;;;;;5037333;28;20530;-85
2021/12/01 07:13:00;;;;;;;6.60;1.90;;;9.20;99.90;;;;;;5036071;28;20039;-85
2021/12/01 07:15:26;;;;;;;5.90;2.10;;;9.20;99.90;;;;;;5053203;28;20551;-84
2021/12/01 07:17:51;;;;;;;4.53;1.70;;;9.20;99.90;;;;;;5053839;28;20113;-84
2021/12/01 07:20:17;;;;;;;4.03;1.70;;;9.10;99.90;;;;;;5053000;28;20281;-85
2021/12/01 07:22:43;;;;;;;3.67;1.58;;;9.10;99.90;;;;;;5051795;28;20048;-84
2021/12/01 07:25:09;;;;;;;4.93;2.08;;;9.10;99.90;;;;;;5052640;28;20056;-85
2021/12/01 07:27:35;;;;;;;5.03;1.83;;;9.10;99.90;;;;;;5053521;28;20125;-84
2021/12/01 07:30:02;;;;;;;4.28;1.70;;;9.10;99.90;;;;;;5053432;28;20079;-85
2021/12/01 07:32:28;;;;;;;4.55;1.80;;;9.10;99.90;;;;;;5052791;28;20048;-85
2021/12/01 07:34:55;;;;;;;4.60;1.55;;;9.10;99.90;;;;;;5052757;28;20032;-85
2021/12/01 07:37:20;;;;;;;4.00;1.60;;;9.10;99.90;;;;;;5053371;28;20117;-85
2021/12/01 07:39:46;;;;;;;6.05;2.08;;;9.10;99.90;;;;;;5053690;28;20090;-84
2021/12/01 07:42:13;;;;;;;4.35;1.65;;;9.10;99.90;;;;;;5053213;28;20037;-85
2021/12/01 07:44:39;;;;;;;3.75;1.48;;;9.10;99.90;;;;;;5052694;28;20506;-85
2021/12/01 07:47:06;;;;;;;3.55;1.40;;;9.10;99.90;;;;;;5036639;28;20525;-85
2021/12/01 07:49:32;;;;;;;2.42;1.08;;;9.10;99.90;;;;;;5053121;28;20037;-85
2021/12/01 07:51:58;;;;;;;2.95;1.30;;;9.10;99.90;;;;;;5036553;28;20050;-85
2021/12/01 07:54:23;;;;;;;2.25;1.17;;;9.10;99.90;;;;;;5053028;28;20037;-85
2021/12/01 07:56:49;;;;;;;3.65;1.23;;;9.10;99.90;;;;;;5053196;28;20086;-85
2021/12/01 07:59:15;;;;;;;3.72;1.40;;;9.10;99.90;;;;;;5053184;28;20094;-85
2021/12/01 08:01:45;;;;;;;4.07;1.48;;;9.10;99.90;;;;;;5052795;28;20516;-85
2021/12/01 08:04:14;;;;;;;3.55;1.42;;;9.10;99.90;;;;;;5052649;28;20044;-85
2021/12/01 08:06:40;;;;;;;3.60;1.50;;;9.20;99.90;;;;;;5053191;28;20040;-85
2021/12/01 08:09:06;;;;;;;3.67;1.38;;;9.20;99.90;;;;;;5052619;28;20418;-85
2021/12/01 08:11:33;;;;;;;2.80;1.33;;;9.20;99.90;;;;;;5036567;28;20075;-85
2021/12/01 08:13:58;;;;;;;4.38;1.65;;;9.20;99.90;;;;;;5053084;28;20076;-85
2021/12/01 08:16:24;;;;;;;4.60;1.88;;;9.20;99.90;;;;;;5071107;28;20524;-84
2021/12/01 08:18:53;;;;;;;3.92;1.52;;;9.20;99.90;;;;;;5040399;28;20044;-84
2021/12/01 08:21:19;;;;;;;5.05;1.80;;;9.20;99.90;;;;;;5069719;28;20123;-84
2021/12/01 08:23:45;;;;;;;3.85;1.45;;;9.20;99.90;;;;;;5051193;28;20039;-84
2021/12/01 08:26:11;;;;;;;5.68;2.22;;;9.30;99.90;;;;;;5052232;28;20048;-84
2021/12/01 08:28:37;;;;;;;6.65;2.10;;;9.30;99.90;;;;;;5052831;28;20616;-84
2021/12/01 08:31:02;;;;;;;5.57;2.45;;;9.30;99.90;;;;;;5034390;28;20620;-85
2021/12/01 08:33:28;;;;;;;6.55;2.13;;;9.40;99.90;;;;;;5052108;28;20085;-84
2021/12/01 08:35:53;;;;;;;6.55;2.33;;;9.40;99.90;;;;;;5051763;28;20127;-84
2021/12/01 08:38:19;;;;;;;5.20;1.90;;;9.40;99.90;;;;;;5035931;28;20037;-85
2021/12/01 08:40:45;;;;;;;5.13;2.17;;;9.40;99.90;;;;;;5036089;28;20043;-84
2021/12/01 08:43:11;;;;;;;4.57;1.90;;;9.50;99.90;;;;;;5052194;28;20730;-84
2021/12/01 08:45:36;;;;;;;6.13;2.20;;;9.50;99.90;;;;;;5051442;28;20504;-84
2021/12/01 08:48:03;;;;;;;6.30;2.30;;;9.50;99.90;;;;;;5034922;28;20033;-87
2021/12/01 08:50:30;;;;;;;4.20;1.92;;;9.60;99.90;;;;;;5035572;28;20070;-83
2021/12/01 08:52:56;;;;;;;6.45;2.40;;;9.60;99.90;;;;;;5035649;28;20036;-83
2021/12/01 08:55:23;;;;;;;7.57;2.90;;;9.60;99.90;;;;;;5035295;28;20047;-85
2021/12/01 08:57:50;;;;;;;7.55;3.05;;;9.60;99.90;;;;;;5047984;28;20049;-83
2021/12/01 09:00:18;;;;;;;20.70;3.72;;;9.60;99.90;;;;;;5049719;28;20044;-84
2021/12/01 09:02:43;;;;;;;8.00;3.00;;;9.60;99.90;;;;;;5051434;28;20405;-84
2021/12/01 09:05:09;;;;;;;8.20;2.88;;;9.60;99.90;;;;;;5045110;28;20042;-84
2021/12/01 09:07:35;;;;;;;7.32;2.95;;;9.60;99.90;;;;;;5033571;28;20036;-83
2021/12/01 09:10:00;;;;;;;8.15;2.85;;;9.50;99.90;;;;;;5052044;28;20601;-82
2021/12/01 09:12:26;;;;;;;6.03;2.25;;;9.50;99.90;;;;;;5052344;28;20076;-83
2021/12/01 09:14:52;;;;;;;4.28;1.77;;;9.50;99.90;;;;;;5051461;28;20037;-83
2021/12/01 09:17:18;;;;;;;5.00;1.23;;;9.50;99.90;;;;;;5035321;28;20132;-84
2021/12/01 09:19:44;;;;;;;4.22;1.58;;;9.50;99.90;;;;;;5051170;28;20082;-84
2021/12/01 09:22:09;;;;;;;5.63;1.52;;;9.50;99.90;;;;;;5052654;28;20517;-84
2021/12/01 09:24:35;;;;;;;6.75;1.73;;;9.50;99.90;;;;;;5050851;28;20489;-84
2021/12/01 09:27:01;;;;;;;4.18;1.65;;;9.50;99.90;;;;;;5050776;28;20482;-85
2021/12/01 09:29:27;;;;;;;4.88;1.60;;;9.50;99.90;;;;;;5035291;28;20045;-85
2021/12/01 09:31:58;;;;;;;6.00;1.73;;;9.50;99.90;;;;;;5052290;28;20452;-84
2021/12/01 09:34:24;;;;;;;7.68;1.90;;;9.60;99.90;;;;;;5050402;28;20041;-83
2021/12/01 09:36:49;;;;;;;6.45;1.60;;;9.60;99.90;;;;;;5053916;28;20036;-84
2021/12/01 09:39:15;;;;;;;5.95;1.45;;;9.60;99.90;;;;;;5055882;28;20140;-84
2021/12/01 09:41:41;;;;;;;8.63;1.52;;;9.60;99.90;;;;;;5055715;28;20583;-84
2021/12/01 09:44:07;;;;;;;8.98;1.35;;;9.60;99.90;;;;;;5061176;28;20116;-84
2021/12/01 09:46:33;;;;;;;5.15;1.30;;;9.60;99.90;;;;;;5054427;28;20120;-84
2021/12/01 09:48:59;;;;;;;7.05;1.45;;;9.60;99.90;;;;;;5053236;28;20089;-85
2021/12/01 09:51:26;;;;;;;5.00;1.23;;;9.70;99.90;;;;;;5055162;28;20036;-84
2021/12/01 09:53:53;;;;;;;7.47;1.52;;;9.70;99.90;;;;;;5038265;28;20060;-84
2021/12/01 09:56:20;;;;;;;4.93;1.20;;;9.70;99.90;;;;;;5054989;28;20048;-84
2021/12/01 09:58:45;;;;;;;8.93;1.50;;;9.60;99.90;;;;;;5055057;28;20052;-84
2021/12/01 10:01:14;;;;;;;7.40;1.52;;;9.60;99.90;;;;;;5038229;28;20036;-84
2021/12/01 10:03:40;;;;;;;8.07;1.52;;;9.60;99.90;;;;;;5054274;28;20044;-84
2021/12/01 10:06:14;;;;;;;11.93;1.65;;;9.60;99.90;;;;;;5054515;28;20084;-84
2021/12/01 10:08:45;;;;;;;10.15;2.08;;;9.60;99.90;;;;;;5054853;28;20033;-84
2021/12/01 10:11:20;;;;;;;9.68;1.55;;;9.60;99.90;;;;;;5054965;28;20132;-84
2021/12/01 10:13:54;;;;;;;4.95;0.93;;;9.60;99.90;;;;;;5054095;28;20436;-85
2021/12/01 10:16:22;;;;;;;7.95;1.52;;;9.60;99.90;;;;;;5051904;28;20127;-84
2021/12/01 10:19:09;;;;;;;7.10;1.15;;;9.50;99.90;;;;;;5055002;28;20048;-85
2021/12/01 10:21:37;;;;;;;5.53;1.10;;;9.40;99.90;;;;;;5054725;28;20040;-84
2021/12/01 10:24:09;;;;;;;5.30;1.17;;;9.50;99.90;;;;;;5045382;28;20041;-85
2021/12/01 10:26:47;;;;;;;7.93;1.48;;;9.40;99.90;;;;;;5038020;28;20048;-83
2021/12/01 10:29:19;;;;;;;5.30;1.05;;;9.40;99.90;;;;;;5070803;28;20377;-84
2021/12/01 10:31:49;;;;;;;7.65;1.38;;;9.50;99.90;;;;;;5053628;28;20033;-84
2021/12/01 10:34:16;;;;;;;7.75;1.10;;;9.50;99.90;;;;;;5037093;28;20127;-85
2021/12/01 10:36:42;;;;;;;5.82;1.35;;;9.50;99.90;;;;;;5069854;28;20043;-85
2021/12/01 10:39:08;;;;;;;8.15;1.33;;;9.40;99.90;;;;;;5037093;28;20409;-84
2021/12/01 10:41:36;;;;;;;6.57;1.17;;;9.40;99.90;;;;;;5054595;28;20043;-85
2021/12/01 10:44:11;;;;;;;7.28;1.85;;;9.40;99.90;;;;;;5054267;28;20519;-85
2021/12/01 10:46:50;;;;;;;11.13;1.45;;;9.40;99.90;;;;;;5070776;28;20183;-84
2021/12/01 10:49:16;;;;;;;13.73;1.90;;;9.40;99.90;;;;;;5071177;28;20063;-84
2021/12/01 10:51:44;;;;;;;9.95;1.48;;;9.40;99.90;;;;;;5038137;28;20051;-84
2021/12/01 10:54:16;;;;;;;11.35;1.88;;;9.40;99.90;;;;;;5053168;28;20086;-84
2021/12/01 10:56:42;;;;;;;8.48;1.20;;;9.40;99.90;;;;;;5053833;28;20044;-85
2021/12/01 10:59:14;;;;;;;8.18;1.73;;;9.40;99.90;;;;;;5037440;28;20094;-84
2021/12/01 11:01:40;;;;;;;5.28;0.90;;;9.40;99.90;;;;;;5053177;28;20044;-84
2021/12/01 11:04:06;;;;;;;8.63;1.55;;;9.40;99.90;;;;;;5052827;28;20404;-84
2021/12/01 11:06:39;;;;;;;7.15;1.17;;;9.40;99.90;;;;;;5037390;28;20036;-83
2021/12/01 11:09:05;;;;;;;9.00;1.30;;;9.40;99.90;;;;;;5053095;28;20086;-84
2021/12/01 11:11:39;;;;;;;12.40;1.48;;;9.40;99.90;;;;;;5037129;28;20033;-84
2021/12/01 11:14:14;;;;;;;7.30;2.10;;;9.50;99.90;;;;;;5036644;28;20029;-83
2021/12/01 11:16:41;;;;;;;9.65;1.23;;;9.50;99.90;;;;;;5053190;28;20044;-84
2021/12/01 11:19:08;;;;;;;8.15;1.55;;;9.60;99.90;;;;;;5036719;28;20071;-84
2021/12/01 11:21:34;;;;;;;9.02;1.45;;;9.60;99.90;;;;;;5053350;28;20371;-83
2021/12/01 11:24:08;;;;;;;10.00;1.70;;;9.60;99.90;;;;;;5051709;28;20489;-85
2021/12/01 11:26:35;;;;;;;12.20;2.05;;;9.60;99.90;;;;;;5053429;28;20032;-85
2021/12/01 11:29:08;;;;;;;10.15;1.60;;;9.60;99.90;;;;;;5052398;28;20032;-85
2021/12/01 11:31:38;;;;;;;;;;;9.60;99.90;;;;;;5053856;28;20032;-84
2021/12/01 11:34:07;;;;;;;15.77;2.28;;;9.60;99.90;;;;;;5052924;28;19954;-84
2021/12/01 11:36:36;;;;;;;10.82;1.50;;;9.60;99.90;;;;;;5053199;28;20510;-84
2021/12/01 11:39:09;;;;;;;12.75;1.90;;;9.60;99.90;;;;;;5053053;28;20147;-84
2021/12/01 11:41:36;;;;;;;11.40;2.10;;;9.60;99.90;;;;;;5053333;28;20047;-84
2021/12/01 11:44:04;;;;;;;10.13;1.92;;;9.60;99.90;;;;;;5036156;28;20041;-84
2021/12/01 11:46:32;;;;;;;11.93;1.95;;;9.60;99.90;;;;;;5035794;28;20053;-84
2021/12/01 11:49:00;;;;;;;8.68;1.75;;;9.70;99.90;;;;;;5036584;28;20052;-84
2021/12/01 11:51:38;;;;;;;12.85;2.03;;;9.70;99.90;;;;;;5035704;28;20756;-84
2021/12/01 11:54:12;;;;;;;7.72;1.77;;;9.60;99.90;;;;;;5035346;28;20036;-84
2021/12/01 11:56:46;;;;;;;10.30;1.75;;;9.60;99.90;;;;;;5052993;28;20052;-84
2021/12/01 11:59:20;;;;;;;10.32;1.65;;;9.60;99.90;;;;;;5052888;28;20040;-84
2021/12/01 12:02:10;;;;;;;9.30;1.95;;;9.70;99.90;;;;;;5052613;28;20085;-84
2021/12/01 12:04:47;;;;;;;14.93;2.03;;;9.90;99.90;;;;;;5051360;28;20097;-84
2021/12/01 12:07:31;;;;;;;11.65;2.58;;;9.80;99.90;;;;;;5052271;28;20136;-84
2021/12/01 12:10:12;;;;;;;15.38;2.92;;;9.70;99.90;;;;;;5047847;28;20493;-84
2021/12/01 12:12:47;;;;;;;17.92;3.15;;;9.70;99.90;;;;;;5052964;28;20037;-85
2021/12/01 12:15:45;;;;;;;11.05;2.08;;;9.70;99.90;;;;;;5051996;28;20075;-85
2021/12/01 12:18:14;;;;;;;15.00;2.35;;;9.70;99.90;;;;;;5036257;28;20079;-84
2021/12/01 12:20:44;;;;;;;13.25;2.65;;;9.60;99.90;;;;;;5053101;28;20036;-84
2021/12/01 12:23:11;;;;;;;10.77;1.92;;;9.60;99.90;;;;;;5040633;28;20134;-84
2021/12/01 12:25:52;;;;;;;12.90;1.80;;;9.50;99.90;;;;;;5072303;28;20036;-84
2021/12/01 12:28:19;;;;;;;14.55;2.53;;;9.50;99.90;;;;;;5073195;28;20081;-85
2021/12/01 12:30:44;;;;;;;11.23;1.83;;;9.50;99.90;;;;;;5076079;28;20067;-83
2021/12/01 12:33:19;;;;;;;14.18;2.38;;;9.50;99.90;;;;;;5041950;28;20086;-84
2021/12/01 12:35:50;;;;;;;11.32;2.65;;;9.50;99.90;;;;;;5039088;28;20063;-84
2021/12/01 12:38:17;;;;;;;12.05;1.90;;;9.40;99.90;;;;;;5043712;28;20064;-84
2021/12/01 12:40:43;;;;;;;11.93;1.52;;;9.40;99.90;;;;;;5025008;28;20477;-84
2021/12/01 12:43:20;;;;;;;13.60;1.90;;;9.30;99.90;;;;;;5059435;28;20056;-84
2021/12/01 12:46:12;;;;;;;11.80;3.20;;;9.20;99.90;;;;;;5049912;28;20032;-85
2021/12/01 12:48:40;;;;;;;10.65;2.15;;;9.20;99.90;;;;;;5033637;28;20668;-84
2021/12/01 12:51:26;;;;;;;10.45;1.95;;;9.30;99.90;;;;;;5041596;28;20127;-85
2021/12/01 12:54:04;;;;;;;12.00;2.58;;;9.30;99.90;;;;;;5040346;28;20572;-85
2021/12/01 12:56:37;;;;;;;13.93;2.30;;;9.40;99.90;;;;;;5057910;28;20048;-85
2021/12/01 12:59:19;;;;;;;;;;;9.60;99.90;;;;;;5052540;28;20048;-85